Airfield :
LOGIN :

Register | Disclaimer

   EN    FR    IT 

 










Legend :    VFR   Marginal VFR   IFR   Intensive IFR   Very Intensive IFR
Visi :
Ceiling :
>= 8 km
>= 3000ft
5 to 8 km
1000 to 3000 ft
1500m to 5 km
500 to 1000 ft
800 to 1500m
200 to 500 ft
< 800m
< 200 ft
Symbols :   Thunderstorms  Fog  Heavy snow  Heavy precipitations  Wind > 20 kt
SIGMETs :     Misc.  Thunderstorms  Icing  Turbulence  Mountain Waves  Volcanic Ashes






- Airport Elevation : 75 ft
- IATA code : YEO


EGDY - RNAS Yeovilton

CURRENT METAR :
  • 241650Z 26020KT 9999 BKN022 11/07 Q1006 BECMG 9999 BKN025 RMK WHT BECMG BLU

EXPIRED METARs :
  • 241620Z 25016KT 9999 FEW012 BKN022 12/09 Q1006 BECMG 9999 BKN025 RMK WHT BECMG BLU
  • 241550Z 26012KT 9999 -DZ FEW012 OVC022 12/10 Q1006 BECMG 9999 BKN025 RMK WHT BECMG BLU
  • 241450Z 25016G27KT 8000 VCSH SCT010 OVC022 13/10 Q1007 BECMG 9999 BKN025 RMK GRN BECMG BLU
  • 241420Z 22006KT 6000 -DZ SCT012 OVC020 11/10 Q1007 NOSIG RMK GRN GRN

TAF TAF EGDY
Valid from the 24 at 15:00 until the 25 at 00:00 UTC


241341Z 2415/2424 22010G20KT 7000 -RA SCT010 OVC020
BECMG 2415/2416 26015G25KT 9999 NSW BKN025
TEMPO 2416/2421 BKN020
BECMG 2418/2420 27010KT



MET'MAP, your aeronautical weather chart ! - Copyright ORBIFLY December 2007 - Disclaimer

ORBIFLY MET'MAP TEAM :

Programming & Development : Alexandra Zaïnal
Concept & original design : Baudouin d'Aumeries
Assistance for programming : Marc-Olivier Méhu
Technical & hardware support : Manuel Goepfert

Contact : metmap@orbifly.com




SOURCES & CREDITS :

   NOAA